METAR Data
IDs: Format: Raw Decoded Include TAF

Data at: 0211 UTC 25 Feb 2021

LICB 250150Z AUTO 07003KT 9999 NCD 05/04 Q1030